Time;durP1;ratioP1;P1;durP2;ratioP2;P2;SDS_P1;SDS_P2;PMS_P1;PMS_P2;Temp;Humidity;BMP_temperature;BMP_pressure;BME280_temperature;BME280_humidity;BME280_pressure;Samples;Min_cycle;Max_cycle;Signal;HPM_P1;HPM_P2
2021/03/18 00:00:47;;;;;;;1.73;0.77;;;20.10;41.00;;;;;;5036941;28;20087;-46
2021/03/18 00:03:21;;;;;;;4.70;1.30;;;20.00;41.00;;;;;;5037040;28;20119;-45
2021/03/18 00:05:47;;;;;;;4.03;1.20;;;20.00;40.80;;;;;;5036366;28;20114;-48
2021/03/18 00:08:13;;;;;;;3.75;1.48;;;20.00;40.80;;;;;;5036121;28;20492;-48
2021/03/18 00:10:39;;;;;;;3.22;1.20;;;20.00;40.70;;;;;;5018114;28;20029;-51
2021/03/18 00:13:06;;;;;;;2.22;1.00;;;20.00;40.70;;;;;;5036369;28;20022;-54
2021/03/18 00:15:33;;;;;;;1.42;0.70;;;20.00;40.70;;;;;;5035771;28;20444;-50
2021/03/18 00:17:58;;;;;;;3.33;0.90;;;19.90;40.50;;;;;;5036241;28;20017;-50
2021/03/18 00:20:24;;;;;;;2.47;0.90;;;19.90;40.50;;;;;;5036038;28;20104;-47
2021/03/18 00:22:49;;;;;;;2.55;1.02;;;19.90;40.50;;;;;;5035751;28;20025;-46
2021/03/18 00:25:17;;;;;;;1.95;1.05;;;19.90;40.40;;;;;;5036139;28;20083;-45
2021/03/18 00:27:45;;;;;;;3.88;1.50;;;19.80;40.30;;;;;;5043476;28;20063;-46
2021/03/18 00:30:13;;;;;;;2.50;1.05;;;19.80;40.30;;;;;;5042624;28;20363;-52
2021/03/18 00:32:40;;;;;;;2.13;1.00;;;19.80;40.20;;;;;;5055902;28;20037;-47
2021/03/18 00:35:07;;;;;;;4.28;1.10;;;19.80;40.80;;;;;;5055877;28;20025;-46
2021/03/18 00:37:35;;;;;;;1.77;1.00;;;19.80;40.10;;;;;;5055746;28;20049;-49
2021/03/18 00:40:01;;;;;;;3.05;1.15;;;19.80;40.10;;;;;;5055904;28;20025;-47
2021/03/18 00:42:26;;;;;;;2.22;1.10;;;19.70;40.00;;;;;;5055743;28;20021;-52
2021/03/18 00:44:52;;;;;;;4.72;1.10;;;19.70;40.00;;;;;;5036040;28;20036;-46
2021/03/18 00:47:18;;;;;;;2.42;1.23;;;19.70;39.90;;;;;;5036386;28;20045;-48
2021/03/18 00:49:44;;;;;;;2.97;0.98;;;19.70;39.90;;;;;;5036007;28;20025;-49
2021/03/18 00:52:11;;;;;;;4.40;1.35;;;19.70;39.90;;;;;;5035529;28;20025;-51
2021/03/18 00:54:37;;;;;;;2.00;0.90;;;19.70;39.80;;;;;;5035643;28;20340;-44
2021/03/18 00:57:03;;;;;;;3.25;1.23;;;19.60;39.70;;;;;;5035371;28;20100;-45
2021/03/18 00:59:28;;;;;;;2.53;0.90;;;19.60;39.70;;;;;;5035381;28;20029;-47
2021/03/18 01:01:54;;;;;;;4.13;1.30;;;19.60;39.60;;;;;;5035435;28;20076;-51
2021/03/18 01:04:19;;;;;;;1.52;0.98;;;19.60;39.60;;;;;;5035487;28;20021;-47
2021/03/18 01:06:45;;;;;;;1.83;0.68;;;19.50;39.50;;;;;;5035231;28;20037;-45
2021/03/18 01:09:11;;;;;;;3.45;1.25;;;19.50;39.50;;;;;;5054456;28;20086;-52
2021/03/18 01:11:38;;;;;;;1.00;0.90;;;19.60;39.60;;;;;;5055291;28;20021;-47
2021/03/18 01:14:10;;;;;;;3.60;0.85;;;19.50;39.50;;;;;;5055371;28;20079;-47
2021/03/18 01:16:46;;;;;;;1.95;0.80;;;19.50;39.40;;;;;;5055517;28;20078;-46
2021/03/18 01:19:14;;;;;;;2.55;1.08;;;19.50;39.40;;;;;;5054939;28;20025;-50
2021/03/18 01:21:48;;;;;;;1.35;0.70;;;19.50;39.40;;;;;;5054427;28;20456;-47
2021/03/18 01:24:14;;;;;;;3.20;0.85;;;19.50;39.40;;;;;;5050283;28;20500;-48
2021/03/18 01:26:41;;;;;;;2.92;1.02;;;19.50;39.40;;;;;;5035216;28;20180;-49
2021/03/18 01:29:07;;;;;;;1.85;0.75;;;19.40;39.30;;;;;;5035077;28;20036;-46
2021/03/18 01:31:33;;;;;;;3.40;1.30;;;19.40;39.30;;;;;;5034624;28;20022;-43
2021/03/18 01:33:59;;;;;;;1.27;0.70;;;19.40;39.30;;;;;;5035131;28;20022;-49
2021/03/18 01:36:25;;;;;;;3.10;0.80;;;19.40;39.30;;;;;;5034951;28;20103;-49
2021/03/18 01:38:51;;;;;;;0.98;0.60;;;19.40;39.30;;;;;;5034696;28;20029;-47
2021/03/18 01:41:18;;;;;;;2.40;0.90;;;19.30;39.20;;;;;;5034876;28;20018;-46
2021/03/18 01:43:44;;;;;;;1.27;0.77;;;19.40;39.20;;;;;;5034860;28;20092;-46
2021/03/18 01:46:11;;;;;;;1.60;0.90;;;19.30;39.20;;;;;;5017004;28;20349;-46
2021/03/18 01:48:37;;;;;;;1.92;0.82;;;19.30;39.20;;;;;;5035027;28;20021;-44
2021/03/18 01:51:03;;;;;;;2.28;0.90;;;19.30;39.10;;;;;;5034986;28;20083;-51
2021/03/18 01:53:29;;;;;;;1.88;0.90;;;19.30;39.70;;;;;;5034566;28;20033;-44
2021/03/18 01:55:57;;;;;;;3.35;0.85;;;19.30;39.20;;;;;;5034714;28;20035;-46
2021/03/18 01:58:23;;;;;;;1.48;0.80;;;19.30;39.00;;;;;;5034656;28;20325;-45
2021/03/18 02:00:52;;;;;;;1.80;0.80;;;19.20;39.00;;;;;;5034844;28;20068;-47
2021/03/18 02:03:18;;;;;;;2.70;0.70;;;19.20;38.90;;;;;;5034741;28;20091;-48
2021/03/18 02:05:45;;;;;;;1.58;0.73;;;19.20;38.90;;;;;;5035162;28;20387;-43
2021/03/18 02:08:11;;;;;;;2.40;0.93;;;19.20;38.90;;;;;;5034475;28;20086;-45
2021/03/18 02:10:38;;;;;;;2.58;1.00;;;19.20;38.90;;;;;;5034369;28;20100;-46
2021/03/18 02:13:05;;;;;;;2.65;1.08;;;19.20;38.90;;;;;;5034549;28;20037;-43
2021/03/18 02:15:35;;;;;;;2.80;0.77;;;19.20;38.90;;;;;;5034945;28;20156;-47
2021/03/18 02:18:26;;;;;;;1.33;0.73;;;19.20;38.90;;;;;;5034841;28;20107;-45
2021/03/18 02:21:21;;;;;;;2.33;0.90;;;19.10;38.80;;;;;;5034197;28;20480;-46
2021/03/18 02:24:20;;;;;;;3.53;0.95;;;19.10;38.80;;;;;;5034403;28;20033;-44
2021/03/18 02:27:01;;;;;;;2.72;0.70;;;19.10;38.80;;;;;;5034387;28;20084;-46
2021/03/18 02:29:48;;;;;;;1.98;0.70;;;19.10;38.70;;;;;;5034524;28;20022;-48
2021/03/18 02:32:17;;;;;;;1.60;0.80;;;19.10;38.80;;;;;;5035684;28;20029;-45
2021/03/18 02:35:07;;;;;;;4.75;0.98;;;19.00;38.70;;;;;;5037851;28;20480;-44
2021/03/18 02:37:36;;;;;;;1.77;1.02;;;19.10;38.70;;;;;;5037824;28;20083;-47
2021/03/18 02:40:12;;;;;;;4.22;1.00;;;19.00;38.70;;;;;;5038061;28;20037;-49
2021/03/18 02:42:37;;;;;;;1.40;0.80;;;19.00;38.70;;;;;;5038164;28;20484;-46
2021/03/18 02:45:05;;;;;;;2.33;0.93;;;19.00;38.70;;;;;;5037848;28;20096;-44
2021/03/18 02:47:33;;;;;;;2.55;0.98;;;19.00;38.70;;;;;;5038074;28;20099;-49
2021/03/18 02:49:59;;;;;;;1.10;0.70;;;19.00;38.70;;;;;;5038367;28;20057;-46
2021/03/18 02:52:28;;;;;;;1.95;0.65;;;19.00;38.70;;;;;;5038017;28;20049;-45
2021/03/18 02:54:56;;;;;;;3.47;1.00;;;19.00;38.60;;;;;;5037893;28;20034;-46
2021/03/18 02:57:22;;;;;;;1.55;0.70;;;18.90;38.60;;;;;;5037696;28;20021;-47
2021/03/18 02:59:50;;;;;;;2.78;0.80;;;18.90;38.60;;;;;;5037646;28;20117;-44
2021/03/18 03:02:24;;;;;;;2.25;0.80;;;18.90;38.60;;;;;;5037750;28;20045;-47
2021/03/18 03:04:51;;;;;;;;;;;18.90;38.60;;;;;;5038095;28;20029;-46
2021/03/18 03:07:18;;;;;;;2.42;0.80;;;18.90;38.50;;;;;;5037819;28;19909;-46
2021/03/18 03:09:47;;;;;;;2.55;0.77;;;18.90;38.50;;;;;;5037759;28;20425;-48
2021/03/18 03:12:17;;;;;;;2.70;1.10;;;18.90;38.60;;;;;;5037577;28;20113;-44
2021/03/18 03:14:45;;;;;;;2.67;1.00;;;18.90;38.50;;;;;;5037266;28;20101;-45
2021/03/18 03:17:15;;;;;;;1.52;0.80;;;18.90;38.50;;;;;;5037366;28;20329;-45
2021/03/18 03:19:43;;;;;;;3.35;0.90;;;18.80;38.50;;;;;;5037456;28;20017;-47
2021/03/18 03:22:09;;;;;;;3.55;1.23;;;18.80;38.50;;;;;;5037289;28;20336;-44
2021/03/18 03:24:37;;;;;;;1.67;0.95;;;18.80;38.50;;;;;;5037232;28;20025;-47
2021/03/18 03:27:04;;;;;;;2.78;0.80;;;18.80;38.50;;;;;;5037163;28;20452;-43
2021/03/18 03:29:30;;;;;;;2.78;0.98;;;18.80;38.40;;;;;;5037039;28;20021;-46
2021/03/18 03:31:56;;;;;;;2.03;0.70;;;18.80;38.40;;;;;;5037696;28;20045;-46
2021/03/18 03:34:22;;;;;;;3.42;1.15;;;18.80;38.40;;;;;;5036710;28;20432;-44
2021/03/18 03:36:48;;;;;;;2.58;0.95;;;18.80;38.40;;;;;;5036952;28;20096;-48
2021/03/18 03:39:15;;;;;;;1.30;0.70;;;18.80;38.40;;;;;;5036913;28;20538;-49
2021/03/18 03:41:41;;;;;;;3.22;0.98;;;18.80;38.40;;;;;;5036703;28;20099;-50
2021/03/18 03:44:07;;;;;;;2.42;1.10;;;18.80;38.40;;;;;;5036588;28;20335;-45
2021/03/18 03:46:34;;;;;;;2.15;1.15;;;18.70;38.30;;;;;;5036991;28;20064;-50
2021/03/18 03:49:01;;;;;;;1.67;0.98;;;18.70;38.30;;;;;;5036772;28;20356;-47
2021/03/18 03:51:42;;;;;;;2.03;0.90;;;18.70;38.30;;;;;;5036978;28;20036;-50
2021/03/18 03:54:11;;;;;;;0.80;0.60;;;18.70;38.30;;;;;;5036399;28;20021;-47
2021/03/18 03:56:58;;;;;;;1.70;0.93;;;18.70;38.30;;;;;;5036420;28;20033;-47
2021/03/18 03:59:26;;;;;;;2.72;1.00;;;18.70;38.30;;;;;;5036705;28;20022;-45
2021/03/18 04:01:56;;;;;;;2.60;0.90;;;18.60;38.20;;;;;;5036498;28;20026;-44
2021/03/18 04:04:26;;;;;;;3.95;0.90;;;18.70;38.30;;;;;;5036462;28;20052;-45
2021/03/18 04:07:04;;;;;;;3.17;1.20;;;18.60;38.30;;;;;;5036246;28;20037;-48
2021/03/18 04:09:30;;;;;;;2.67;1.00;;;18.60;38.30;;;;;;5036598;28;20032;-46
2021/03/18 04:11:59;;;;;;;2.95;1.00;;;18.60;38.30;;;;;;5036385;28;20146;-48
2021/03/18 04:14:30;;;;;;;1.65;0.93;;;18.60;38.30;;;;;;5036014;28;20391;-47
2021/03/18 04:17:01;;;;;;;2.13;1.15;;;18.60;38.30;;;;;;5036625;28;20076;-49
2021/03/18 04:19:28;;;;;;;2.53;0.95;;;18.60;38.30;;;;;;5036077;28;20340;-45
2021/03/18 04:21:54;;;;;;;2.90;0.80;;;18.60;38.30;;;;;;5035876;28;20040;-50
2021/03/18 04:24:23;;;;;;;2.65;1.02;;;18.60;38.30;;;;;;5036065;28;20029;-52
2021/03/18 04:26:50;;;;;;;2.25;1.17;;;18.60;38.30;;;;;;5036249;28;20052;-49
2021/03/18 04:29:17;;;;;;;1.20;0.65;;;18.60;38.30;;;;;;5036010;28;20025;-46
2021/03/18 04:31:43;;;;;;;2.00;0.90;;;18.50;38.30;;;;;;5035933;28;20455;-48
2021/03/18 04:34:11;;;;;;;2.30;1.10;;;18.50;38.20;;;;;;5035861;28;20033;-46
2021/03/18 04:36:38;;;;;;;2.30;0.98;;;18.50;38.20;;;;;;5035935;28;20318;-46
2021/03/18 04:39:05;;;;;;;2.00;0.88;;;18.50;38.30;;;;;;5035934;28;20025;-45
2021/03/18 04:41:32;;;;;;;2.45;1.02;;;18.50;38.20;;;;;;5036038;28;20025;-45
2021/03/18 04:43:57;;;;;;;2.75;1.42;;;18.50;38.20;;;;;;5035824;28;20105;-47
2021/03/18 04:46:25;;;;;;;1.63;1.15;;;18.50;38.20;;;;;;5035526;28;20132;-48
2021/03/18 04:48:55;;;;;;;3.25;1.17;;;18.50;38.20;;;;;;5035625;28;20411;-45
2021/03/18 04:51:20;;;;;;;2.08;0.95;;;18.50;38.20;;;;;;5035956;28;20078;-50
2021/03/18 04:53:46;;;;;;;2.28;0.90;;;18.40;38.10;;;;;;5035505;28;20025;-50
2021/03/18 04:56:12;;;;;;;3.60;1.05;;;18.40;38.10;;;;;;5017414;28;20033;-49
2021/03/18 04:58:39;;;;;;;2.35;0.85;;;18.40;38.10;;;;;;5035609;28;20028;-48
2021/03/18 05:01:06;;;;;;;3.60;1.05;;;18.40;38.10;;;;;;5035405;28;20034;-51
2021/03/18 05:03:35;;;;;;;2.67;1.00;;;18.40;38.10;;;;;;5035350;28;20026;-45
2021/03/18 05:06:05;;;;;;;2.70;1.05;;;18.40;38.10;;;;;;5035418;28;20091;-45
2021/03/18 05:08:33;;;;;;;1.45;1.05;;;18.40;38.10;;;;;;5035328;28;20322;-48
2021/03/18 05:10:59;;;;;;;2.33;0.90;;;18.40;38.10;;;;;;5035096;28;20036;-48
2021/03/18 05:13:26;;;;;;;1.77;0.90;;;18.40;38.10;;;;;;5035487;28;20029;-48
2021/03/18 05:15:53;;;;;;;1.90;0.90;;;18.40;38.20;;;;;;5035011;28;20080;-52
2021/03/18 05:18:20;;;;;;;1.20;0.90;;;18.30;38.10;;;;;;5035163;28;20037;-45
2021/03/18 05:20:47;;;;;;;2.53;1.08;;;18.30;38.10;;;;;;5035314;28;20108;-51
2021/03/18 05:23:14;;;;;;;1.58;0.90;;;18.30;38.10;;;;;;5034927;28;20040;-46
2021/03/18 05:25:40;;;;;;;3.22;0.98;;;18.30;38.10;;;;;;5034743;28;20418;-49
2021/03/18 05:28:06;;;;;;;1.92;0.73;;;18.30;38.10;;;;;;5035296;28;20033;-47
2021/03/18 05:30:33;;;;;;;1.63;0.90;;;18.30;38.10;;;;;;5035368;28;20022;-45
2021/03/18 05:33:01;;;;;;;2.55;0.88;;;18.30;38.10;;;;;;5034675;28;20033;-48
2021/03/18 05:35:27;;;;;;;1.25;0.70;;;18.30;38.10;;;;;;5034884;28;20503;-45
2021/03/18 05:37:53;;;;;;;1.80;0.90;;;18.30;38.20;;;;;;5034867;28;20418;-51
2021/03/18 05:40:19;;;;;;;4.18;1.13;;;18.30;38.20;;;;;;5034966;28;20055;-50
2021/03/18 05:42:47;;;;;;;1.42;0.80;;;18.30;38.20;;;;;;5034849;28;20115;-52
2021/03/18 05:45:15;;;;;;;3.40;1.13;;;18.30;38.20;;;;;;5034576;28;20026;-53
2021/03/18 05:47:41;;;;;;;2.90;1.27;;;18.30;38.20;;;;;;5035513;28;20379;-52
2021/03/18 05:50:14;;;;;;;2.17;0.90;;;18.20;38.20;;;;;;5034934;28;20021;-50
2021/03/18 05:52:40;;;;;;;3.35;1.00;;;18.20;38.20;;;;;;5035019;28;20456;-50
2021/03/18 05:55:07;;;;;;;2.05;0.90;;;18.20;38.20;;;;;;5034996;28;20026;-50
2021/03/18 05:57:34;;;;;;;3.40;1.42;;;18.30;38.30;;;;;;5034536;28;20029;-48
2021/03/18 06:00:01;;;;;;;1.58;0.90;;;18.20;38.20;;;;;;5034623;28;20022;-51
2021/03/18 06:02:27;;;;;;;1.60;0.70;;;18.20;38.20;;;;;;5034458;28;20423;-50
2021/03/18 06:04:53;;;;;;;1.65;0.80;;;18.20;38.20;;;;;;5034842;28;20100;-48
2021/03/18 06:07:19;;;;;;;1.90;1.10;;;18.20;38.30;;;;;;5036024;28;20028;-51
2021/03/18 06:09:45;;;;;;;2.28;1.05;;;18.20;38.20;;;;;;5038679;28;20348;-49
2021/03/18 06:12:10;;;;;;;2.13;1.20;;;18.20;38.30;;;;;;5038671;28;20018;-46
2021/03/18 06:14:36;;;;;;;3.17;1.10;;;18.20;38.30;;;;;;5038709;28;20384;-45
2021/03/18 06:17:02;;;;;;;2.35;0.85;;;18.10;38.20;;;;;;5038798;28;20048;-46
2021/03/18 06:19:28;;;;;;;2.35;1.00;;;18.20;38.30;;;;;;5038217;28;20403;-45
2021/03/18 06:21:56;;;;;;;2.08;1.13;;;18.10;38.20;;;;;;5038442;28;20022;-45
2021/03/18 06:24:24;;;;;;;1.98;0.90;;;18.20;38.30;;;;;;5038232;28;20110;-44
2021/03/18 06:26:50;;;;;;;1.52;0.90;;;18.10;38.30;;;;;;5040431;28;20029;-44
2021/03/18 06:29:36;;;;;;;3.55;1.05;;;18.20;38.40;;;;;;5038591;28;20108;-46
2021/03/18 06:32:22;;;;;;;3.58;1.40;;;18.10;38.30;;;;;;5040966;28;20025;-48
2021/03/18 06:34:47;;;;;;;1.95;0.80;;;18.10;38.30;;;;;;5050746;28;20021;-49
2021/03/18 06:37:38;;;;;;;1.90;0.90;;;18.10;38.30;;;;;;5050368;28;20138;-45
2021/03/18 06:40:18;;;;;;;4.50;1.40;;;18.10;38.40;;;;;;5053906;28;20051;-45
2021/03/18 06:42:56;;;;;;;2.58;0.98;;;18.10;38.40;;;;;;5057960;28;20021;-47
2021/03/18 06:45:27;;;;;;;4.35;1.17;;;18.10;38.40;;;;;;5057480;28;20024;-48
2021/03/18 06:47:57;;;;;;;3.30;0.90;;;18.10;38.40;;;;;;5057511;28;20041;-44
2021/03/18 06:50:25;;;;;;;2.38;1.13;;;18.10;39.20;;;;;;5057517;28;20326;-49
2021/03/18 06:52:51;;;;;;;5.05;1.10;;;18.10;38.50;;;;;;5054965;28;20025;-44
2021/03/18 06:55:31;;;;;;;2.60;0.90;;;18.10;38.50;;;;;;5051062;28;20021;-44
2021/03/18 06:58:16;;;;;;;1.73;1.15;;;18.00;38.50;;;;;;5050274;28;20136;-45
2021/03/18 07:00:46;;;;;;;1.85;1.00;;;18.10;38.60;;;;;;5037667;28;20029;-47
2021/03/18 07:03:23;;;;;;;5.50;1.52;;;18.10;38.60;;;;;;5037733;28;20035;-45
2021/03/18 07:05:49;;;;;;;1.23;0.82;;;18.00;38.50;;;;;;5037921;28;20344;-48
2021/03/18 07:08:32;;;;;;;1.15;0.88;;;18.10;38.60;;;;;;5037309;28;20029;-45
2021/03/18 07:10:59;;;;;;;2.97;1.08;;;18.00;38.60;;;;;;5039228;28;20056;-45
2021/03/18 07:13:28;;;;;;;1.38;0.75;;;18.00;38.60;;;;;;5057381;28;20112;-47
2021/03/18 07:15:56;;;;;;;2.33;0.95;;;18.00;38.60;;;;;;5057339;28;20029;-50
2021/03/18 07:18:23;;;;;;;2.60;1.30;;;18.00;38.60;;;;;;5056547;28;20029;-45
2021/03/18 07:20:59;;;;;;;2.38;1.08;;;18.00;38.60;;;;;;5047387;28;20048;-48
2021/03/18 07:23:51;;;;;;;3.08;1.50;;;18.00;38.60;;;;;;5048980;28;20043;-48
2021/03/18 07:26:19;;;;;;;2.17;1.05;;;18.00;38.70;;;;;;5034955;28;20037;-46
2021/03/18 07:28:53;;;;;;;5.22;1.05;;;18.00;38.70;;;;;;5057402;28;20025;-48
2021/03/18 07:31:20;;;;;;;3.15;1.20;;;18.00;38.70;;;;;;5037593;28;20393;-51
2021/03/18 07:33:47;;;;;;;2.78;1.10;;;18.00;38.70;;;;;;5037910;28;20032;-43
2021/03/18 07:36:14;;;;;;;2.25;1.20;;;18.00;38.70;;;;;;5036899;28;20103;-48
2021/03/18 07:38:41;;;;;;;4.47;1.27;;;18.00;38.80;;;;;;5037493;28;20021;-48
2021/03/18 07:41:18;;;;;;;1.92;1.15;;;18.00;38.80;;;;;;5048517;28;20109;-53
2021/03/18 07:43:45;;;;;;;4.15;1.30;;;18.00;39.00;;;;;;5053632;28;20116;-53
2021/03/18 07:46:16;;;;;;;7.20;1.50;;;18.00;39.20;;;;;;5047446;28;20045;-47
2021/03/18 07:48:45;;;;;;;8.70;1.30;;;18.00;40.10;;;;;;5036723;28;20040;-52
2021/03/18 07:51:12;;;;;;;16.80;1.40;;;18.00;39.60;;;;;;5036465;28;20476;-49
2021/03/18 07:53:39;;;;;;;4.80;1.67;;;18.00;39.70;;;;;;5049575;28;20459;-50
2021/03/18 07:56:12;;;;;;;4.47;1.25;;;18.00;39.90;;;;;;5056612;28;20432;-47
2021/03/18 07:58:46;;;;;;;2.50;1.33;;;18.00;40.00;;;;;;5056609;28;20331;-48
2021/03/18 08:01:30;;;;;;;3.67;1.23;;;18.10;41.00;;;;;;5056222;28;20064;-47
2021/03/18 08:03:58;;;;;;;4.20;1.50;;;18.10;40.30;;;;;;5053115;28;20063;-52
2021/03/18 08:06:41;;;;;;;1.75;1.02;;;18.20;40.30;;;;;;5049983;28;20457;-48
2021/03/18 08:09:11;;;;;;;2.03;1.23;;;18.30;40.30;;;;;;5050482;28;20075;-53
2021/03/18 08:11:38;;;;;;;4.38;1.75;;;18.30;40.30;;;;;;5036611;28;20022;-52
2021/03/18 08:14:11;;;;;;;3.75;1.27;;;18.40;40.30;;;;;;5036579;28;20459;-54
2021/03/18 08:16:36;;;;;;;2.75;0.88;;;18.40;40.30;;;;;;5051771;28;20037;-48
2021/03/18 08:19:05;;;;;;;3.15;1.00;;;18.50;40.30;;;;;;5055792;28;20082;-52
2021/03/18 08:21:45;;;;;;;9.32;1.45;;;18.60;40.30;;;;;;5056265;28;20031;-52
2021/03/18 08:24:21;;;;;;;2.17;1.08;;;18.60;40.50;;;;;;5055867;28;20036;-52
2021/03/18 08:26:49;;;;;;;1.88;0.85;;;18.70;40.40;;;;;;5056184;28;20482;-48
2021/03/18 08:29:21;;;;;;;1.92;1.00;;;18.70;40.30;;;;;;5055469;28;20033;-52
2021/03/18 08:31:57;;;;;;;8.65;1.60;;;18.70;40.30;;;;;;5055837;28;20028;-46
2021/03/18 08:34:46;;;;;;;1.13;0.90;;;18.80;40.30;;;;;;5055622;28;20032;-50
2021/03/18 08:37:13;;;;;;;3.55;1.27;;;18.80;40.20;;;;;;5046500;28;20498;-48
2021/03/18 08:39:42;;;;;;;5.25;1.20;;;18.90;40.40;;;;;;5036222;28;20075;-52
2021/03/18 08:42:43;;;;;;;2.40;1.10;;;18.80;40.30;;;;;;5035824;28;20099;-48
2021/03/18 08:45:10;;;;;;;2.42;1.20;;;18.90;40.40;;;;;;4937084;29;20074;-46
2021/03/18 08:47:38;;;;;;;1.90;1.02;;;19.00;40.30;;;;;;5016314;28;20046;-52
2021/03/18 08:50:10;;;;;;;4.07;1.58;;;19.00;40.30;;;;;;5035716;28;20152;-53
2021/03/18 08:52:39;;;;;;;3.35;1.65;;;19.00;40.30;;;;;;5035749;28;20060;-51
2021/03/18 08:55:07;;;;;;;3.28;1.40;;;19.00;40.20;;;;;;5035059;28;20029;-54
2021/03/18 08:57:34;;;;;;;4.07;1.70;;;19.10;40.30;;;;;;5035489;28;20043;-53
2021/03/18 09:00:13;;;;;;;5.43;1.00;;;19.10;40.30;;;;;;5035402;28;20108;-51
2021/03/18 09:02:39;;;;;;;3.38;1.30;;;19.10;40.40;;;;;;5035452;28;20024;-46
2021/03/18 09:05:31;;;;;;;4.85;1.65;;;19.10;40.10;;;;;;5071976;28;20144;-45
2021/03/18 09:07:59;;;;;;;4.53;1.48;;;19.20;40.90;;;;;;5071947;28;20025;-44
2021/03/18 09:10:30;;;;;;;4.13;1.40;;;19.20;41.00;;;;;;5071932;28;20024;-46
2021/03/18 09:13:03;;;;;;;6.75;1.30;;;19.30;41.30;;;;;;5072099;28;20070;-51
2021/03/18 09:15:31;;;;;;;7.18;1.25;;;19.30;41.40;;;;;;5072056;28;20029;-47
2021/03/18 09:17:58;;;;;;;5.63;1.55;;;19.40;41.70;;;;;;5072234;28;20025;-46
2021/03/18 09:20:28;;;;;;;5.95;1.42;;;19.40;41.70;;;;;;5071712;28;20355;-49
2021/03/18 09:23:06;;;;;;;8.00;1.60;;;19.40;41.80;;;;;;5071954;28;20036;-46
2021/03/18 09:25:31;;;;;;;5.53;1.27;;;19.50;41.90;;;;;;5071757;28;20093;-51
2021/03/18 09:27:58;;;;;;;6.93;1.27;;;19.50;42.00;;;;;;5071996;28;20103;-51
2021/03/18 09:30:30;;;;;;;4.18;1.15;;;19.50;42.20;;;;;;5072059;28;20445;-48
2021/03/18 09:32:57;;;;;;;7.88;1.42;;;19.50;42.10;;;;;;5071737;28;20021;-46
2021/03/18 09:35:26;;;;;;;2.08;1.13;;;19.60;42.10;;;;;;5071903;28;20017;-52
2021/03/18 09:37:52;;;;;;;4.88;1.40;;;19.60;42.70;;;;;;5071207;28;20410;-48
2021/03/18 09:40:29;;;;;;;3.45;1.38;;;19.60;41.90;;;;;;5071680;28;20035;-47
2021/03/18 09:42:54;;;;;;;4.88;1.55;;;19.60;42.10;;;;;;5071505;28;20025;-49
2021/03/18 09:45:20;;;;;;;4.93;1.45;;;19.60;41.90;;;;;;5071024;28;20146;-51
2021/03/18 09:47:49;;;;;;;3.85;1.30;;;19.60;42.10;;;;;;5071169;28;20017;-45
2021/03/18 09:50:15;;;;;;;5.72;1.13;;;19.60;42.10;;;;;;5071342;28;20448;-46
2021/03/18 09:52:41;;;;;;;8.60;1.20;;;19.70;42.10;;;;;;5071018;28;20035;-48
2021/03/18 09:55:13;;;;;;;5.00;1.92;;;19.70;42.10;;;;;;5071210;28;20020;-48
2021/03/18 09:57:39;;;;;;;7.40;2.13;;;19.70;42.10;;;;;;5071234;28;20033;-48
2021/03/18 10:00:06;;;;;;;7.97;1.88;;;19.70;42.10;;;;;;5070642;28;20328;-47
2021/03/18 10:02:32;;;;;;;15.88;2.20;;;19.70;42.20;;;;;;5070849;28;20448;-46
2021/03/18 10:04:57;;;;;;;5.30;1.25;;;19.70;42.30;;;;;;5087224;28;20117;-44
2021/03/18 10:07:31;;;;;;;7.90;1.60;;;19.80;42.40;;;;;;5091292;28;20028;-44
2021/03/18 10:09:58;;;;;;;20.92;2.60;;;19.80;42.30;;;;;;5091423;28;20430;-46
2021/03/18 10:12:26;;;;;;;10.68;2.20;;;19.90;42.30;;;;;;5091003;28;20036;-49
2021/03/18 10:15:05;;;;;;;18.35;3.70;;;20.00;42.50;;;;;;5089173;28;20107;-49
2021/03/18 10:17:36;;;;;;;14.88;3.25;;;20.00;42.30;;;;;;5077594;28;20449;-45
2021/03/18 10:20:12;;;;;;;19.13;2.72;;;20.00;42.50;;;;;;5077498;28;20458;-46
2021/03/18 10:22:40;;;;;;;21.00;2.85;;;20.10;43.20;;;;;;5077159;28;20020;-47
2021/03/18 10:25:16;;;;;;;18.45;3.22;;;20.10;45.00;;;;;;5076451;28;20020;-46
2021/03/18 10:27:45;;;;;;;17.52;3.40;;;20.10;48.10;;;;;;5059589;28;20025;-47
2021/03/18 10:30:20;;;;;;;17.95;3.83;;;20.20;49.00;;;;;;5057087;28;20464;-51
2021/03/18 10:33:06;;;;;;;14.95;2.97;;;20.10;49.40;;;;;;5057615;28;20020;-48
2021/03/18 10:35:35;;;;;;;12.23;2.75;;;20.20;49.00;;;;;;5056987;28;20090;-46
2021/03/18 10:38:00;;;;;;;17.05;3.63;;;20.20;48.80;;;;;;5056734;28;20029;-48
2021/03/18 10:40:36;;;;;;;21.45;4.55;;;20.20;48.40;;;;;;5057214;28;20025;-52
2021/03/18 10:43:02;;;;;;;13.00;4.35;;;20.20;48.60;;;;;;5057247;28;20025;-47
2021/03/18 10:45:34;;;;;;;18.88;3.47;;;20.30;48.60;;;;;;5039205;28;20052;-49
2021/03/18 10:48:06;;;;;;;14.60;3.38;;;20.30;48.40;;;;;;5064177;28;20054;-43
2021/03/18 10:50:36;;;;;;;18.73;3.80;;;20.30;48.20;;;;;;5077430;28;20021;-46
2021/03/18 10:53:07;;;;;;;21.58;4.22;;;20.40;47.70;;;;;;5077067;28;20020;-50
2021/03/18 10:55:38;;;;;;;15.07;3.55;;;20.40;46.00;;;;;;5076963;28;20028;-45
2021/03/18 10:58:20;;;;;;;14.82;2.97;;;20.40;46.10;;;;;;5076831;28;20043;-47
2021/03/18 11:00:48;;;;;;;17.25;3.95;;;20.40;46.50;;;;;;5067719;28;20028;-47
2021/03/18 11:03:16;;;;;;;17.48;3.25;;;20.50;45.60;;;;;;5047587;28;20025;-47
2021/03/18 11:05:47;;;;;;;11.40;3.13;;;20.50;46.20;;;;;;5056869;28;20150;-47
2021/03/18 11:08:15;;;;;;;12.15;3.80;;;20.50;46.20;;;;;;5056560;28;20054;-49
2021/03/18 11:10:44;;;;;;;13.93;3.25;;;20.60;45.50;;;;;;5069664;28;20028;-45
2021/03/18 11:13:13;;;;;;;16.98;3.67;;;20.60;44.80;;;;;;5076544;28;20021;-46
2021/03/18 11:15:53;;;;;;;9.00;2.40;;;20.50;45.00;;;;;;5076438;28;20016;-48
2021/03/18 11:18:26;;;;;;;9.77;2.60;;;20.50;45.10;;;;;;5076503;28;20012;-45
2021/03/18 11:20:52;;;;;;;16.65;3.22;;;20.60;45.10;;;;;;5076511;28;20056;-50
2021/03/18 11:23:28;;;;;;;11.05;3.28;;;20.60;45.00;;;;;;5076364;28;20028;-47
2021/03/18 11:25:58;;;;;;;7.60;2.22;;;20.60;44.90;;;;;;5076318;28;20142;-46
2021/03/18 11:28:25;;;;;;;11.80;2.70;;;20.60;44.80;;;;;;5075609;28;20036;-46
2021/03/18 11:30:51;;;;;;;7.18;2.33;;;20.60;44.70;;;;;;5076234;28;20039;-45
2021/03/18 11:33:20;;;;;;;7.47;2.83;;;20.60;44.70;;;;;;5076100;28;20031;-52
2021/03/18 11:35:51;;;;;;;6.35;2.53;;;20.50;44.60;;;;;;5076147;28;20024;-47
2021/03/18 11:38:18;;;;;;;7.55;2.42;;;20.50;44.50;;;;;;5075865;28;20021;-47
2021/03/18 11:40:46;;;;;;;9.18;2.53;;;20.50;44.40;;;;;;5076265;28;20017;-49
2021/03/18 11:43:12;;;;;;;8.38;2.22;;;20.60;44.40;;;;;;5075740;28;20036;-45
2021/03/18 11:45:38;;;;;;;8.27;2.25;;;20.60;44.30;;;;;;5076122;28;20024;-51
2021/03/18 11:48:05;;;;;;;5.63;1.63;;;20.50;44.20;;;;;;5075751;28;20028;-51
2021/03/18 11:50:32;;;;;;;8.52;2.40;;;20.50;44.10;;;;;;5075911;28;20024;-45
2021/03/18 11:52:57;;;;;;;6.28;2.45;;;20.60;44.10;;;;;;5075676;28;20101;-50
2021/03/18 11:55:23;;;;;;;7.75;1.83;;;20.60;44.00;;;;;;5075403;28;20032;-48
2021/03/18 11:57:54;;;;;;;7.55;2.47;;;20.60;43.90;;;;;;5075640;28;20032;-50
2021/03/18 12:00:21;;;;;;;4.72;2.22;;;20.60;43.80;;;;;;5075931;28;20028;-49
2021/03/18 12:02:47;;;;;;;9.38;2.08;;;20.60;43.80;;;;;;5075540;28;20078;-50
2021/03/18 12:05:13;;;;;;;7.85;2.10;;;20.60;43.70;;;;;;5075258;28;20057;-47
2021/03/18 12:07:38;;;;;;;8.07;2.00;;;20.60;43.60;;;;;;5075556;28;20482;-46
2021/03/18 12:10:05;;;;;;;4.80;1.80;;;20.60;43.50;;;;;;5075377;28;20036;-48
2021/03/18 12:12:30;;;;;;;8.07;1.90;;;20.70;43.50;;;;;;5075006;28;20529;-47
2021/03/18 12:14:56;;;;;;;7.22;2.17;;;20.60;43.40;;;;;;5075661;28;20066;-46
2021/03/18 12:17:21;;;;;;;6.10;2.13;;;20.70;43.40;;;;;;5075296;28;20032;-49
2021/03/18 12:19:47;;;;;;;4.95;1.75;;;20.70;43.30;;;;;;5075027;28;20028;-45
2021/03/18 12:22:12;;;;;;;6.50;1.85;;;20.70;43.20;;;;;;5075256;28;20063;-48
2021/03/18 12:24:38;;;;;;;6.05;1.73;;;20.70;43.20;;;;;;5075476;28;20044;-53
2021/03/18 12:27:04;;;;;;;7.07;2.00;;;20.70;43.80;;;;;;5075166;28;20029;-46
2021/03/18 12:29:30;;;;;;;4.47;1.85;;;20.70;43.00;;;;;;5075205;28;20028;-44
2021/03/18 12:31:55;;;;;;;7.28;2.35;;;20.70;42.90;;;;;;5075397;28;20093;-49
2021/03/18 12:34:21;;;;;;;5.55;1.92;;;20.70;42.90;;;;;;5074830;28;20093;-45
2021/03/18 12:36:46;;;;;;;6.15;2.17;;;20.70;42.80;;;;;;5074867;28;20118;-48
2021/03/18 12:39:12;;;;;;;2.42;1.45;;;20.70;42.80;;;;;;5075259;28;20028;-45
2021/03/18 12:41:38;;;;;;;6.78;1.65;;;20.70;42.70;;;;;;5074851;28;20027;-46
2021/03/18 12:44:04;;;;;;;5.13;1.85;;;20.70;42.70;;;;;;5074507;28;20028;-48
2021/03/18 12:46:30;;;;;;;6.40;1.65;;;20.70;42.60;;;;;;5074589;28;20058;-47
2021/03/18 12:48:55;;;;;;;4.07;1.40;;;20.70;42.60;;;;;;5074335;28;20063;-49
2021/03/18 12:51:23;;;;;;;6.13;2.63;;;20.70;42.60;;;;;;5074861;28;20068;-45
2021/03/18 12:53:49;;;;;;;6.22;1.90;;;20.70;43.20;;;;;;5075046;28;20305;-46
2021/03/18 12:56:14;;;;;;;4.03;1.58;;;20.70;42.50;;;;;;5074958;28;20028;-45